createdAt,value
2018-07-26T00:01:28.202Z,94341.47
2018-07-26T00:03:56.977Z,94347.86
2018-07-26T00:06:25.765Z,94351.34
2018-07-26T00:11:22.283Z,94349.21
2018-07-26T00:13:51.058Z,94342.30
2018-07-26T00:16:19.799Z,94344.97
2018-07-26T00:18:48.545Z,94347.89
2018-07-26T00:21:17.326Z,94343.33
2018-07-26T00:23:46.102Z,94346.77
2018-07-26T00:26:14.825Z,94341.98
2018-07-26T00:28:43.509Z,94343.31
2018-07-26T00:31:12.294Z,94345.16
2018-07-26T00:33:41.031Z,94344.38
2018-07-26T00:36:09.774Z,94344.37
2018-07-26T00:38:38.525Z,94348.89
2018-07-26T00:41:07.260Z,94342.77
2018-07-26T00:43:36.006Z,94346.78
2018-07-26T00:46:04.825Z,94348.62
2018-07-26T00:48:33.542Z,94339.59
2018-07-26T00:51:02.307Z,94336.92
2018-07-26T00:53:31.099Z,94341.17
2018-07-26T00:55:59.876Z,94332.94
2018-07-26T00:58:28.611Z,94335.60
2018-07-26T01:00:57.360Z,94340.41
2018-07-26T01:03:26.087Z,94336.41
2018-07-26T01:05:54.811Z,94338.79
2018-07-26T01:08:23.564Z,94336.13
2018-07-26T01:10:52.690Z,94337.22
2018-07-26T01:13:21.429Z,94346.80
2018-07-26T01:15:50.219Z,94341.75
2018-07-26T01:18:18.992Z,94331.91
2018-07-26T01:20:47.747Z,94335.63
2018-07-26T01:23:16.553Z,94340.14
2018-07-26T01:25:45.334Z,94335.09
2018-07-26T01:28:14.134Z,94330.56
2018-07-26T01:30:42.986Z,94334.03
2018-07-26T01:33:11.758Z,94328.44
2018-07-26T01:35:40.485Z,94327.38
2018-07-26T01:38:09.303Z,94324.73
2018-07-26T01:40:38.175Z,94328.98
2018-07-26T01:43:25.894Z,94332.45
2018-07-26T01:45:54.721Z,94333.24
2018-07-26T01:48:23.613Z,94333.24
2018-07-26T01:50:52.341Z,94327.12
2018-07-26T01:53:21.171Z,94336.68
2018-07-26T01:55:49.925Z,94342.02
2018-07-26T01:58:18.761Z,94336.97
2018-07-26T02:00:47.506Z,94333.27
2018-07-26T02:03:16.269Z,94330.34
2018-07-26T02:05:44.993Z,94332.73
2018-07-26T02:08:13.754Z,94331.63
2018-07-26T02:10:42.626Z,94326.33
2018-07-26T02:13:11.626Z,94324.47
2018-07-26T02:15:40.365Z,94324.19
2018-07-26T02:18:09.210Z,94319.68
2018-07-26T02:20:38.002Z,94324.22
2018-07-26T02:23:06.743Z,94315.70
2018-07-26T02:25:36.493Z,94319.41
2018-07-26T02:28:05.510Z,94316.21
2018-07-26T02:30:34.587Z,94326.33
2018-07-26T02:33:03.369Z,94323.14
2018-07-26T02:35:32.099Z,94327.66
2018-07-26T02:38:00.853Z,94328.98
2018-07-26T02:40:29.689Z,94327.12
2018-07-26T02:42:58.449Z,94336.45
2018-07-26T02:45:27.274Z,94331.15
2018-07-26T02:47:56.018Z,94333.79
2018-07-26T02:50:24.798Z,94337.74
2018-07-26T02:52:53.583Z,94338.30
2018-07-26T02:55:22.366Z,94336.68
2018-07-26T02:57:51.446Z,94335.34
2018-07-26T03:00:20.264Z,94332.16
2018-07-26T03:02:49.038Z,94330.56
2018-07-26T03:05:17.794Z,94335.33
2018-07-26T03:07:46.496Z,94333.98
2018-07-26T03:10:15.251Z,94335.30
2018-07-26T03:12:44.147Z,94340.88
2018-07-26T03:15:12.914Z,94345.94
2018-07-26T03:17:41.696Z,94337.73
2018-07-26T03:20:10.545Z,94337.98
2018-07-26T03:22:39.323Z,94335.06
2018-07-26T03:25:08.053Z,94337.98
2018-07-26T03:27:36.824Z,94340.13
2018-07-26T03:30:07.371Z,94339.88
2018-07-26T03:32:36.142Z,94339.09
2018-07-26T03:35:05.366Z,94342.54
2018-07-26T03:37:34.121Z,94344.42
2018-07-26T03:40:02.991Z,94347.63
2018-07-26T03:42:31.775Z,94354.26
2018-07-26T03:45:00.545Z,94352.42
2018-07-26T03:47:29.350Z,94352.94
2018-07-26T03:49:58.089Z,94359.34
2018-07-26T03:52:26.937Z,94355.06
2018-07-26T03:54:55.690Z,94359.59
2018-07-26T03:57:24.474Z,94359.88
2018-07-26T03:59:53.192Z,94361.73
2018-07-26T04:02:21.917Z,94366.23
2018-07-26T04:04:50.683Z,94362.52
2018-07-26T04:07:19.434Z,94361.45
2018-07-26T04:09:48.170Z,94364.39
2018-07-26T04:12:16.934Z,94368.08
2018-07-26T04:14:45.706Z,94378.72
2018-07-26T04:17:14.441Z,94376.84
2018-07-26T04:19:43.211Z,94372.33
2018-07-26T04:22:11.961Z,94372.56
2018-07-26T04:24:40.692Z,94379.75
2018-07-26T04:27:09.850Z,94383.48
2018-07-26T04:29:38.662Z,94380.80
2018-07-26T04:32:07.438Z,94383.20
2018-07-26T04:34:36.308Z,94382.64
2018-07-26T04:37:05.085Z,94382.08
2018-07-26T04:39:33.841Z,94381.28
2018-07-26T04:42:02.728Z,94384.98
2018-07-26T04:44:31.566Z,94383.41
2018-07-26T04:47:00.404Z,94387.41
2018-07-26T04:49:29.172Z,94389.00
2018-07-26T04:51:58.074Z,94385.97
2018-07-26T04:54:27.347Z,94389.66
2018-07-26T04:56:56.226Z,94391.73
2018-07-26T04:59:24.999Z,94394.13
2018-07-26T05:01:53.736Z,94401.00
2018-07-26T05:04:22.533Z,94400.37
2018-07-26T05:06:51.341Z,94407.78
2018-07-26T05:09:20.093Z,94401.44
2018-07-26T05:11:48.853Z,94404.36
2018-07-26T05:14:17.863Z,94406.39
2018-07-26T05:16:46.597Z,94409.98
2018-07-26T05:19:15.398Z,94413.87
2018-07-26T05:21:44.246Z,94399.34
2018-07-26T05:24:13.046Z,94400.97
2018-07-26T05:26:42.193Z,94398.77
2018-07-26T05:29:11.050Z,94404.91
2018-07-26T05:31:39.827Z,94406.64
2018-07-26T05:34:08.661Z,94403.49
2018-07-26T05:36:37.429Z,94415.02
2018-07-26T05:39:09.563Z,94414.78
2018-07-26T05:41:38.506Z,94410.92
2018-07-26T05:44:07.316Z,94418.19
2018-07-26T05:46:36.095Z,94424.94
2018-07-26T05:49:04.912Z,94422.65
2018-07-26T05:51:33.721Z,94427.17
2018-07-26T05:54:02.498Z,94427.78
2018-07-26T05:56:31.271Z,94432.47
2018-07-26T05:59:00.036Z,94432.01
2018-07-26T06:01:29.285Z,94436.25
2018-07-26T06:03:58.022Z,94437.07
2018-07-26T06:06:26.823Z,94427.66
2018-07-26T06:08:55.615Z,94433.12
2018-07-26T06:11:24.510Z,94432.23
2018-07-26T06:13:53.267Z,94436.83
2018-07-26T06:16:22.126Z,94432.66
2018-07-26T06:18:51.017Z,94433.79
2018-07-26T06:21:19.866Z,94433.67
2018-07-26T06:23:48.635Z,94433.03
2018-07-26T06:26:17.416Z,94433.23
2018-07-26T06:28:46.498Z,94434.83
2018-07-26T06:31:15.430Z,94437.75
2018-07-26T06:33:44.349Z,94437.87
2018-07-26T06:36:13.163Z,94434.33
2018-07-26T06:38:41.938Z,94437.41
2018-07-26T06:41:10.691Z,94439.28
2018-07-26T06:43:39.451Z,94435.14
2018-07-26T06:46:08.487Z,94430.17
2018-07-26T06:48:37.318Z,94431.72
2018-07-26T06:51:06.203Z,94434.24
2018-07-26T06:53:35.706Z,94428.98
2018-07-26T06:56:04.956Z,94425.90
2018-07-26T06:58:33.721Z,94436.04
2018-07-26T07:01:02.923Z,94427.08
2018-07-26T07:03:31.683Z,94432.02
2018-07-26T07:06:00.414Z,94432.03
2018-07-26T07:08:29.197Z,94429.50
2018-07-26T07:10:57.956Z,94431.98
2018-07-26T07:13:26.790Z,94436.00
2018-07-26T07:15:55.606Z,94436.22
2018-07-26T07:18:24.702Z,94438.70
2018-07-26T07:20:53.548Z,94435.80
2018-07-26T07:23:22.351Z,94432.83
2018-07-26T07:25:51.182Z,94438.41
2018-07-26T07:28:19.964Z,94434.52
2018-07-26T07:30:48.888Z,94434.44
2018-07-26T07:33:17.659Z,94439.34
2018-07-26T07:35:46.527Z,94433.09
2018-07-26T07:38:15.859Z,94431.70
2018-07-26T07:40:44.679Z,94430.52
2018-07-26T07:43:13.497Z,94436.02
2018-07-26T07:45:42.640Z,94436.78
2018-07-26T07:48:11.419Z,94445.26
2018-07-26T07:50:40.223Z,94442.47
2018-07-26T07:53:08.985Z,94448.34
2018-07-26T07:55:37.743Z,94447.59
2018-07-26T07:58:07.186Z,94447.14
2018-07-26T08:00:35.990Z,94444.47
2018-07-26T08:03:05.154Z,94447.20
2018-07-26T08:05:33.907Z,94440.08
2018-07-26T08:08:03.075Z,94437.12
2018-07-26T08:10:31.862Z,94435.92
2018-07-26T08:13:00.622Z,94443.05
2018-07-26T08:15:29.346Z,94442.52
2018-07-26T08:17:58.082Z,94435.38
2018-07-26T08:20:26.829Z,94435.19
2018-07-26T08:22:55.590Z,94431.75
2018-07-26T08:25:24.415Z,94436.02
2018-07-26T08:27:53.255Z,94428.14
2018-07-26T08:30:22.025Z,94424.23
2018-07-26T08:32:50.769Z,94423.77
2018-07-26T08:35:19.605Z,94423.18
2018-07-26T08:37:48.418Z,94426.70
2018-07-26T08:40:17.181Z,94421.67
2018-07-26T08:42:45.980Z,94416.05
2018-07-26T08:45:14.774Z,94413.98
2018-07-26T08:47:43.757Z,94417.59
2018-07-26T08:50:12.623Z,94419.83
2018-07-26T08:52:41.584Z,94417.93
2018-07-26T08:55:10.434Z,94409.01
2018-07-26T08:57:39.213Z,94415.55
2018-07-26T09:00:08.474Z,94411.06
2018-07-26T09:02:37.515Z,94413.70
2018-07-26T09:05:07.758Z,94411.09
2018-07-26T09:07:36.588Z,94400.94
2018-07-26T09:10:05.408Z,94399.08
2018-07-26T09:12:34.234Z,94395.47
2018-07-26T09:15:03.016Z,94392.44
2018-07-26T09:17:31.801Z,94396.61
2018-07-26T09:20:00.573Z,94394.07
2018-07-26T09:22:29.373Z,94397.19
2018-07-26T09:24:58.169Z,94392.88
2018-07-26T09:27:27.002Z,94398.44
2018-07-26T09:29:55.766Z,94393.97
2018-07-26T09:32:24.482Z,94388.55
2018-07-26T09:34:53.235Z,94382.34
2018-07-26T09:37:22.110Z,94386.50
2018-07-26T09:39:50.879Z,94385.84
2018-07-26T09:42:19.665Z,94382.72
2018-07-26T09:44:48.398Z,94381.77
2018-07-26T09:47:17.183Z,94381.87
2018-07-26T09:49:46.164Z,94381.17
2018-07-26T09:52:14.970Z,94375.77
2018-07-26T09:54:43.949Z,94377.71
2018-07-26T09:57:13.235Z,94379.69
2018-07-26T09:59:42.870Z,94379.00
2018-07-26T10:02:11.567Z,94378.78
2018-07-26T10:04:40.422Z,94375.78
2018-07-26T10:07:09.167Z,94369.06
2018-07-26T10:09:37.904Z,94363.77
2018-07-26T10:12:07.017Z,94363.22
2018-07-26T10:14:35.761Z,94357.83
2018-07-26T10:17:04.669Z,94359.20
2018-07-26T10:19:33.417Z,94362.45
2018-07-26T10:22:02.246Z,94365.44
2018-07-26T10:24:30.992Z,94368.11
2018-07-26T10:26:59.727Z,94354.61
2018-07-26T10:29:28.458Z,94354.81
2018-07-26T10:31:57.230Z,94351.96
2018-07-26T10:34:26.003Z,94347.28
2018-07-26T10:36:54.747Z,94346.27
2018-07-26T10:39:23.596Z,94343.09
2018-07-26T10:41:52.337Z,94337.32
2018-07-26T10:44:21.087Z,94344.70
2018-07-26T10:46:49.835Z,94342.56
2018-07-26T10:49:18.554Z,94333.13
2018-07-26T10:51:47.347Z,94336.60
2018-07-26T10:54:16.073Z,94341.33
2018-07-26T10:56:44.818Z,94338.45
2018-07-26T10:59:13.506Z,94338.55
2018-07-26T11:01:42.283Z,94334.39
2018-07-26T11:04:11.062Z,94331.25
2018-07-26T11:06:39.848Z,94343.90
2018-07-26T11:09:09.756Z,94335.31
2018-07-26T11:11:38.508Z,94340.05
2018-07-26T11:14:07.952Z,94341.62
2018-07-26T11:16:36.859Z,94340.03
2018-07-26T11:19:05.907Z,94344.39
2018-07-26T11:21:34.805Z,94350.41
2018-07-26T11:24:03.581Z,94342.55
2018-07-26T11:26:32.345Z,94344.54
2018-07-26T11:29:01.090Z,94342.95
2018-07-26T11:31:29.878Z,94341.89
2018-07-26T11:33:58.784Z,94334.95
2018-07-26T11:36:27.525Z,94338.15
2018-07-26T11:38:56.304Z,94341.23
2018-07-26T11:41:25.086Z,94340.44
2018-07-26T11:43:54.048Z,94338.06
2018-07-26T11:46:22.794Z,94339.28
2018-07-26T11:48:51.537Z,94338.91
2018-07-26T11:51:20.281Z,94335.14
2018-07-26T11:53:49.036Z,94342.50
2018-07-26T11:56:17.826Z,94350.31
2018-07-26T11:58:46.565Z,94359.41
2018-07-26T12:01:15.425Z,94345.65
2018-07-26T12:03:44.189Z,94352.86
2018-07-26T12:06:12.973Z,94343.42
2018-07-26T12:08:41.687Z,94349.03
2018-07-26T12:11:10.559Z,94351.44
2018-07-26T12:13:39.284Z,94351.59
2018-07-26T12:16:08.070Z,94351.56
2018-07-26T12:18:36.793Z,94356.22
2018-07-26T12:21:05.622Z,94350.19
2018-07-26T12:23:34.390Z,94354.16
2018-07-26T12:26:03.137Z,94352.52
2018-07-26T12:28:31.914Z,94352.70
2018-07-26T12:31:00.694Z,94371.14
2018-07-26T12:33:29.512Z,94368.27
2018-07-26T12:35:58.393Z,94371.80
2018-07-26T12:38:27.330Z,94363.69
2018-07-26T12:40:56.113Z,94360.45
2018-07-26T12:43:24.945Z,94354.78
2018-07-26T12:45:53.764Z,94352.66
2018-07-26T12:48:22.633Z,94354.14
2018-07-26T12:50:51.401Z,94361.59
2018-07-26T12:53:20.110Z,94359.28
2018-07-26T12:55:48.946Z,94357.89
2018-07-26T12:58:18.005Z,94347.67
2018-07-26T13:00:46.781Z,94342.84
2018-07-26T13:03:15.582Z,94338.81
2018-07-26T13:05:44.774Z,94338.64
2018-07-26T13:08:13.535Z,94339.78
2018-07-26T13:10:42.362Z,94344.28
2018-07-26T13:13:11.158Z,94345.81
2018-07-26T13:15:39.944Z,94349.45
2018-07-26T13:18:09.735Z,94354.89
2018-07-26T13:20:38.595Z,94355.73
2018-07-26T13:23:07.483Z,94359.13
2018-07-26T13:25:36.220Z,94360.48
2018-07-26T13:28:04.978Z,94366.94
2018-07-26T13:30:33.888Z,94366.06
2018-07-26T13:33:02.698Z,94356.28
2018-07-26T13:35:31.471Z,94352.67
2018-07-26T13:38:00.258Z,94356.89
2018-07-26T13:40:29.086Z,94350.94
2018-07-26T13:42:58.771Z,94361.77
2018-07-26T13:45:27.574Z,94361.13
2018-07-26T13:47:56.358Z,94357.83
2018-07-26T13:50:25.099Z,94363.92
2018-07-26T13:52:53.805Z,94359.95
2018-07-26T13:55:22.621Z,94353.05
2018-07-26T13:57:51.563Z,94357.35
2018-07-26T14:00:20.299Z,94353.98
2018-07-26T14:02:49.275Z,94351.20
2018-07-26T14:05:18.115Z,94354.99
2018-07-26T14:07:46.957Z,94350.86
2018-07-26T14:10:15.914Z,94357.61
2018-07-26T14:12:45.014Z,94364.40
2018-07-26T14:15:13.825Z,94365.80
2018-07-26T14:17:42.725Z,94364.89
2018-07-26T14:20:12.558Z,94376.06
2018-07-26T14:22:41.764Z,94373.03
2018-07-26T14:25:10.476Z,94371.90
2018-07-26T14:27:39.398Z,94374.28
2018-07-26T14:30:09.386Z,94377.31
2018-07-26T14:32:38.162Z,94382.69
2018-07-26T14:35:07.137Z,94377.31
2018-07-26T14:37:35.884Z,94377.55
2018-07-26T14:40:05.311Z,94377.01
2018-07-26T14:42:34.070Z,94374.63
2018-07-26T14:45:02.879Z,94376.42
2018-07-26T14:47:31.661Z,94377.92
2018-07-26T14:50:00.430Z,94381.77
2018-07-26T14:52:29.233Z,94376.05
2018-07-26T14:54:57.986Z,94378.84
2018-07-26T14:57:26.917Z,94373.59
2018-07-26T14:59:55.785Z,94378.89
2018-07-26T15:02:24.585Z,94376.21
2018-07-26T15:04:53.309Z,94373.73
2018-07-26T15:07:22.050Z,94377.90
2018-07-26T15:09:50.807Z,94374.45
2018-07-26T15:12:19.850Z,94382.79
2018-07-26T15:14:48.565Z,94384.45
2018-07-26T15:17:17.357Z,94387.80
2018-07-26T15:19:48.640Z,94397.28
2018-07-26T15:22:17.415Z,94399.94
2018-07-26T15:24:46.249Z,94410.94
2018-07-26T15:27:14.992Z,94414.11
2018-07-26T15:29:43.903Z,94416.03
2018-07-26T15:32:12.675Z,94427.11
2018-07-26T15:34:41.472Z,94416.84
2018-07-26T15:37:10.212Z,94423.58
2018-07-26T15:39:39.021Z,94424.17
2018-07-26T15:42:08.238Z,94421.03
2018-07-26T15:44:37.127Z,94420.70
2018-07-26T15:47:06.175Z,94425.02
2018-07-26T15:49:35.106Z,94430.43
2018-07-26T15:52:03.969Z,94429.38
2018-07-26T15:54:32.746Z,94434.12
2018-07-26T15:57:01.877Z,94432.98
2018-07-26T15:59:30.600Z,94444.72
2018-07-26T16:01:59.420Z,94444.37
2018-07-26T16:04:28.252Z,94452.66
2018-07-26T16:06:56.966Z,94460.55
2018-07-26T16:09:25.717Z,94456.39
2018-07-26T16:11:54.477Z,94454.00
2018-07-26T16:14:23.240Z,94456.39
2018-07-26T16:16:51.977Z,94455.88
2018-07-26T16:19:20.826Z,94464.33
2018-07-26T16:21:49.960Z,94460.48
2018-07-26T16:24:18.736Z,94468.84
2018-07-26T16:26:47.585Z,94468.26
2018-07-26T16:29:16.442Z,94476.02
2018-07-26T16:31:45.248Z,94471.02
2018-07-26T16:34:14.035Z,94477.14
2018-07-26T16:36:42.838Z,94483.23
2018-07-26T16:39:12.744Z,94485.11
2018-07-26T16:41:41.570Z,94482.80
2018-07-26T16:44:10.325Z,94475.67
2018-07-26T16:46:39.192Z,94482.52
2018-07-26T16:49:09.002Z,94484.11
2018-07-26T16:51:37.886Z,94482.16
2018-07-26T16:54:06.650Z,94481.61
2018-07-26T16:56:35.420Z,94483.42
2018-07-26T16:59:04.738Z,94483.09
2018-07-26T17:01:33.565Z,94483.50
2018-07-26T17:04:02.527Z,94479.84
2018-07-26T17:06:31.389Z,94482.01
2018-07-26T17:09:00.176Z,94487.52
2018-07-26T17:11:29.174Z,94485.45
2018-07-26T17:13:58.244Z,94483.89
2018-07-26T17:16:26.984Z,94489.55
2018-07-26T17:18:55.866Z,94491.39
2018-07-26T17:21:24.682Z,94491.39
2018-07-26T17:23:53.427Z,94491.14
2018-07-26T17:26:22.249Z,94493.24
2018-07-26T17:28:51.607Z,94495.27
2018-07-26T17:31:20.574Z,94496.90
2018-07-26T17:33:49.325Z,94490.89
2018-07-26T17:36:18.080Z,94499.83
2018-07-26T17:38:46.875Z,94503.67
2018-07-26T17:41:15.696Z,94503.81
2018-07-26T17:43:44.552Z,94508.22
2018-07-26T17:46:13.850Z,94508.09
2018-07-26T17:48:42.698Z,94512.53
2018-07-26T17:51:11.625Z,94515.78
2018-07-26T17:53:40.607Z,94521.17
2018-07-26T17:56:09.485Z,94519.09
2018-07-26T17:58:38.518Z,94524.77
2018-07-26T18:01:07.397Z,94521.13
2018-07-26T18:03:36.208Z,94530.22
2018-07-26T18:06:05.005Z,94532.34
2018-07-26T18:08:34.434Z,94529.15
2018-07-26T18:11:03.249Z,94528.95
2018-07-26T18:13:32.059Z,94531.70
2018-07-26T18:16:00.796Z,94526.91
2018-07-26T18:18:29.630Z,94525.27
2018-07-26T18:20:58.913Z,94526.06
2018-07-26T18:23:27.701Z,94526.06
2018-07-26T18:25:56.549Z,94529.00
2018-07-26T18:28:25.274Z,94524.55
2018-07-26T18:30:54.369Z,94530.70
2018-07-26T18:33:23.314Z,94536.83
2018-07-26T18:35:52.130Z,94536.77
2018-07-26T18:38:20.993Z,94544.05
2018-07-26T18:40:49.985Z,94538.39
2018-07-26T18:43:18.955Z,94544.77
2018-07-26T18:45:47.812Z,94542.09
2018-07-26T18:48:16.608Z,94542.73
2018-07-26T18:50:45.417Z,94546.50
2018-07-26T18:53:14.249Z,94542.30
2018-07-26T18:55:43.018Z,94554.91
2018-07-26T18:58:11.730Z,94559.17
2018-07-26T19:00:40.878Z,94563.77
2018-07-26T19:03:10.057Z,94560.63
2018-07-26T19:05:38.901Z,94568.16
2018-07-26T19:08:07.964Z,94564.19
2018-07-26T19:10:36.949Z,94563.99
2018-07-26T19:13:06.151Z,94570.98
2018-07-26T19:15:34.962Z,94574.80
2018-07-26T19:18:03.760Z,94570.56
2018-07-26T19:20:33.001Z,94575.91
2018-07-26T19:23:01.797Z,94577.55
2018-07-26T19:25:31.553Z,94577.02
2018-07-26T19:28:00.333Z,94585.03
2018-07-26T19:30:30.011Z,94582.13
2018-07-26T19:32:58.789Z,94585.87
2018-07-26T19:35:27.613Z,94580.53
2018-07-26T19:37:58.203Z,94579.81
2018-07-26T19:40:26.921Z,94590.13
2018-07-26T19:42:55.652Z,94584.30
2018-07-26T19:45:24.366Z,94584.15
2018-07-26T19:47:53.197Z,94589.83
2018-07-26T19:50:22.029Z,94586.11
2018-07-26T19:52:50.750Z,94585.09
2018-07-26T19:55:19.558Z,94581.95
2018-07-26T19:57:48.306Z,94592.38
2018-07-26T20:00:17.271Z,94594.83
2018-07-26T20:02:46.222Z,94597.80
2018-07-26T20:05:15.041Z,94598.61
2018-07-26T20:07:43.885Z,94599.67
2018-07-26T20:10:13.630Z,94597.28
2018-07-26T20:12:42.753Z,94590.61
2018-07-26T20:15:11.920Z,94595.95
2018-07-26T20:17:40.686Z,94591.66
2018-07-26T20:20:11.125Z,94594.34
2018-07-26T20:22:40.149Z,94593.02
2018-07-26T20:25:09.529Z,94584.75
2018-07-26T20:27:38.378Z,94585.82
2018-07-26T20:30:08.938Z,94582.66
2018-07-26T20:32:38.038Z,94582.66
2018-07-26T20:35:07.989Z,94580.53
2018-07-26T20:37:36.739Z,94582.13
2018-07-26T20:40:06.890Z,94580.26
2018-07-26T20:42:36.181Z,94580.48
2018-07-26T20:45:06.286Z,94582.36
2018-07-26T20:47:35.113Z,94589.07
2018-07-26T20:50:04.191Z,94593.08
2018-07-26T20:52:33.735Z,94590.14
2018-07-26T20:55:02.722Z,94583.47
2018-07-26T20:57:31.547Z,94579.99
2018-07-26T21:00:00.355Z,94581.06
2018-07-26T21:02:29.166Z,94588.00
2018-07-26T21:04:57.971Z,94592.05
2018-07-26T21:07:27.336Z,94578.17
2018-07-26T21:09:56.082Z,94584.84
2018-07-26T21:12:24.880Z,94588.08
2018-07-26T21:14:53.648Z,94584.12
2018-07-26T21:17:22.378Z,94582.25
2018-07-26T21:19:51.133Z,94589.75
2018-07-26T21:22:19.897Z,94590.55
2018-07-26T21:24:48.709Z,94590.02
2018-07-26T21:27:17.463Z,94593.22
2018-07-26T21:29:46.274Z,94594.02
2018-07-26T21:32:15.371Z,94589.45
2018-07-26T21:34:44.155Z,94591.35
2018-07-26T21:37:13.209Z,94586.82
2018-07-26T21:39:42.046Z,94590.31
2018-07-26T21:42:11.020Z,94599.66
2018-07-26T21:44:39.804Z,94595.39
2018-07-26T21:47:09.147Z,94605.78
2018-07-26T21:49:37.883Z,94597.52
2018-07-26T21:52:06.764Z,94595.36
2018-07-26T21:54:35.562Z,94598.05
2018-07-26T21:57:04.766Z,94592.18
2018-07-26T21:59:33.633Z,94593.27
2018-07-26T22:02:02.583Z,94593.30
2018-07-26T22:04:31.361Z,94594.33
2018-07-26T22:07:00.137Z,94596.73
2018-07-26T22:09:28.972Z,94591.13
2018-07-26T22:11:58.186Z,94597.80
2018-07-26T22:14:26.965Z,94598.59
2018-07-26T22:16:55.881Z,94595.93
2018-07-26T22:19:24.681Z,94596.73
2018-07-26T22:21:53.501Z,94597.53
2018-07-26T22:24:22.273Z,94595.69
2018-07-26T22:26:51.250Z,94596.48
2018-07-26T22:29:20.022Z,94598.08
2018-07-26T22:31:48.821Z,94602.61
2018-07-26T22:34:17.612Z,94605.83
2018-07-26T22:36:46.398Z,94600.50
2018-07-26T22:39:15.162Z,94598.92
2018-07-26T22:41:43.965Z,94598.11
2018-07-26T22:44:13.076Z,94604.23
2018-07-26T22:46:41.870Z,94600.80
2018-07-26T22:49:10.639Z,94598.66
2018-07-26T22:51:39.413Z,94595.98
2018-07-26T22:54:08.316Z,94597.84
2018-07-26T22:56:37.167Z,94596.52
2018-07-26T22:59:06.091Z,94595.73
2018-07-26T23:01:34.942Z,94597.33
2018-07-26T23:04:03.730Z,94593.07
2018-07-26T23:06:32.549Z,94597.33
2018-07-26T23:09:01.322Z,94596.80
2018-07-26T23:11:30.061Z,94583.73
2018-07-26T23:13:58.839Z,94585.34
2018-07-26T23:16:27.628Z,94580.81
2018-07-26T23:18:56.404Z,94587.20
2018-07-26T23:21:25.569Z,94582.41
2018-07-26T23:23:54.357Z,94584.81
2018-07-26T23:26:23.154Z,94586.41
2018-07-26T23:28:51.978Z,94595.20
2018-07-26T23:31:20.751Z,94588.80
2018-07-26T23:33:49.530Z,94597.34
2018-07-26T23:36:18.313Z,94588.25
2018-07-26T23:38:47.094Z,94594.91
2018-07-26T23:41:15.850Z,94589.85
2018-07-26T23:43:44.654Z,94586.92
2018-07-26T23:46:13.447Z,94591.73
2018-07-26T23:48:42.293Z,94585.34
2018-07-26T23:51:11.141Z,94589.34
2018-07-26T23:53:39.979Z,94593.86
2018-07-26T23:56:08.870Z,94591.73
2018-07-26T23:58:37.645Z,94594.38
